sensor_id;sensor_type;location;lat;lon;timestamp;pressure;altitude;pressure_sealevel;temperature;humidity
86202;BME280;76853;48.008;20.694;2024-03-22T00:00:25;99874.03;;;6.64;73.60
86202;BME280;76853;48.008;20.694;2024-03-22T00:01:27;99868.06;;;6.64;72.99
86202;BME280;76853;48.008;20.694;2024-03-22T00:02:30;99869.69;;;6.65;72.96
86202;BME280;76853;48.008;20.694;2024-03-22T00:03:32;99871.97;;;6.68;73.03
86202;BME280;76853;48.008;20.694;2024-03-22T00:04:34;99865.97;;;6.67;73.69
86202;BME280;76853;48.008;20.694;2024-03-22T00:05:36;99870.19;;;6.68;73.27
86202;BME280;76853;48.008;20.694;2024-03-22T00:06:39;99870.06;;;6.70;72.60
86202;BME280;76853;48.008;20.694;2024-03-22T00:07:41;99874.91;;;6.73;72.31
86202;BME280;76853;48.008;20.694;2024-03-22T00:08:43;99867.16;;;6.73;71.72
86202;BME280;76853;48.008;20.694;2024-03-22T00:09:45;99870.63;;;6.81;70.34
86202;BME280;76853;48.008;20.694;2024-03-22T00:10:48;99873.31;;;6.90;69.53
86202;BME280;76853;48.008;20.694;2024-03-22T00:11:58;99872.94;;;7.02;68.78
86202;BME280;76853;48.008;20.694;2024-03-22T00:13:00;99868.78;;;7.09;68.26
86202;BME280;76853;48.008;20.694;2024-03-22T00:14:03;99865.63;;;7.16;68.28
86202;BME280;76853;48.008;20.694;2024-03-22T00:15:05;99870.31;;;7.20;68.94
86202;BME280;76853;48.008;20.694;2024-03-22T00:16:08;99866.63;;;7.23;69.45
86202;BME280;76853;48.008;20.694;2024-03-22T00:17:10;99868.25;;;7.24;70.45
86202;BME280;76853;48.008;20.694;2024-03-22T00:18:12;99869.06;;;7.24;70.38
86202;BME280;76853;48.008;20.694;2024-03-22T00:19:14;99869.44;;;7.29;69.98
86202;BME280;76853;48.008;20.694;2024-03-22T00:20:17;99865.56;;;7.33;68.86
86202;BME280;76853;48.008;20.694;2024-03-22T00:21:20;99866.09;;;7.37;68.98
86202;BME280;76853;48.008;20.694;2024-03-22T00:22:22;99871.91;;;7.39;68.34
86202;BME280;76853;48.008;20.694;2024-03-22T00:23:24;99864.81;;;7.41;68.00
86202;BME280;76853;48.008;20.694;2024-03-22T00:24:27;99865.47;;;7.43;67.71
86202;BME280;76853;48.008;20.694;2024-03-22T00:25:29;99862.41;;;7.48;67.14
86202;BME280;76853;48.008;20.694;2024-03-22T00:26:31;99860.44;;;7.42;69.21
86202;BME280;76853;48.008;20.694;2024-03-22T00:27:35;99866.28;;;7.44;69.25
86202;BME280;76853;48.008;20.694;2024-03-22T00:28:37;99865.63;;;7.42;69.21
86202;BME280;76853;48.008;20.694;2024-03-22T00:29:41;99860.59;;;7.40;69.74
86202;BME280;76853;48.008;20.694;2024-03-22T00:30:43;99861.41;;;7.41;69.43
86202;BME280;76853;48.008;20.694;2024-03-22T00:31:46;99858.66;;;7.42;69.18
86202;BME280;76853;48.008;20.694;2024-03-22T00:32:48;99859.28;;;7.36;71.00
86202;BME280;76853;48.008;20.694;2024-03-22T00:33:51;99869.44;;;7.29;71.72
86202;BME280;76853;48.008;20.694;2024-03-22T00:34:54;99866.31;;;7.26;72.08
86202;BME280;76853;48.008;20.694;2024-03-22T00:35:56;99859.16;;;7.20;70.99
86202;BME280;76853;48.008;20.694;2024-03-22T00:36:58;99866.63;;;7.23;70.98
86202;BME280;76853;48.008;20.694;2024-03-22T00:38:02;99863.91;;;7.24;70.57
86202;BME280;76853;48.008;20.694;2024-03-22T00:39:05;99864.53;;;7.26;70.37
86202;BME280;76853;48.008;20.694;2024-03-22T00:40:07;99859.00;;;7.21;70.48
86202;BME280;76853;48.008;20.694;2024-03-22T00:41:12;99863.75;;;7.26;68.95
86202;BME280;76853;48.008;20.694;2024-03-22T00:42:16;99860.03;;;7.28;68.93
86202;BME280;76853;48.008;20.694;2024-03-22T00:43:19;99862.94;;;7.25;70.83
86202;BME280;76853;48.008;20.694;2024-03-22T00:44:22;99857.59;;;7.27;70.55
86202;BME280;76853;48.008;20.694;2024-03-22T00:45:24;99856.63;;;7.28;69.71
86202;BME280;76853;48.008;20.694;2024-03-22T00:46:27;99855.69;;;7.29;69.58
86202;BME280;76853;48.008;20.694;2024-03-22T00:47:29;99853.41;;;7.26;71.50
86202;BME280;76853;48.008;20.694;2024-03-22T00:48:32;99857.09;;;7.23;71.62
86202;BME280;76853;48.008;20.694;2024-03-22T00:49:34;99852.38;;;7.19;71.14
86202;BME280;76853;48.008;20.694;2024-03-22T00:50:36;99847.53;;;7.16;70.88
86202;BME280;76853;48.008;20.694;2024-03-22T00:51:38;99836.50;;;7.14;71.20
86202;BME280;76853;48.008;20.694;2024-03-22T00:52:45;99846.09;;;7.21;71.67
86202;BME280;76853;48.008;20.694;2024-03-22T00:53:47;99851.41;;;7.20;71.38
86202;BME280;76853;48.008;20.694;2024-03-22T00:54:52;99849.34;;;7.23;70.47
86202;BME280;76853;48.008;20.694;2024-03-22T00:55:56;99847.56;;;7.24;70.43
86202;BME280;76853;48.008;20.694;2024-03-22T00:57:01;99845.00;;;7.24;70.05
86202;BME280;76853;48.008;20.694;2024-03-22T00:58:06;99847.56;;;7.24;70.13
86202;BME280;76853;48.008;20.694;2024-03-22T00:59:08;99849.84;;;7.27;69.59
86202;BME280;76853;48.008;20.694;2024-03-22T01:00:11;99850.53;;;7.29;69.31
86202;BME280;76853;48.008;20.694;2024-03-22T01:01:15;99846.00;;;7.31;68.77
86202;BME280;76853;48.008;20.694;2024-03-22T01:02:17;99852.63;;;7.33;68.54
86202;BME280;76853;48.008;20.694;2024-03-22T01:03:21;99850.56;;;7.37;68.47
86202;BME280;76853;48.008;20.694;2024-03-22T01:04:25;99847.78;;;7.30;69.09
86202;BME280;76853;48.008;20.694;2024-03-22T01:05:27;99843.09;;;7.34;69.06
86202;BME280;76853;48.008;20.694;2024-03-22T01:06:29;99858.16;;;7.38;68.74
86202;BME280;76853;48.008;20.694;2024-03-22T01:07:31;99860.19;;;7.27;70.60
86202;BME280;76853;48.008;20.694;2024-03-22T01:08:33;99860.34;;;7.07;73.38
86202;BME280;76853;48.008;20.694;2024-03-22T01:09:35;99851.75;;;6.99;74.31
86202;BME280;76853;48.008;20.694;2024-03-22T01:10:38;99866.28;;;7.00;74.10
86202;BME280;76853;48.008;20.694;2024-03-22T01:11:40;99868.66;;;6.93;73.57
86202;BME280;76853;48.008;20.694;2024-03-22T01:12:42;99860.75;;;6.95;73.02
86202;BME280;76853;48.008;20.694;2024-03-22T01:13:46;99863.78;;;6.90;73.21
86202;BME280;76853;48.008;20.694;2024-03-22T01:14:51;99863.78;;;6.90;73.31
86202;BME280;76853;48.008;20.694;2024-03-22T01:15:53;99862.66;;;6.93;73.02
86202;BME280;76853;48.008;20.694;2024-03-22T01:16:58;99867.03;;;6.92;72.88
86202;BME280;76853;48.008;20.694;2024-03-22T01:18:01;99860.88;;;6.93;72.81
86202;BME280;76853;48.008;20.694;2024-03-22T01:19:03;99860.63;;;6.96;71.17
86202;BME280;76853;48.008;20.694;2024-03-22T01:20:06;99865.47;;;6.99;71.07
86202;BME280;76853;48.008;20.694;2024-03-22T01:21:08;99860.75;;;6.95;72.29
86202;BME280;76853;48.008;20.694;2024-03-22T01:22:10;99860.25;;;6.91;73.01
86202;BME280;76853;48.008;20.694;2024-03-22T01:23:12;99864.88;;;6.88;73.22
86202;BME280;76853;48.008;20.694;2024-03-22T01:24:14;99866.66;;;6.87;73.12
86202;BME280;76853;48.008;20.694;2024-03-22T01:25:16;99865.13;;;6.76;74.21
86202;BME280;76853;48.008;20.694;2024-03-22T01:26:19;99859.94;;;6.76;74.00
86202;BME280;76853;48.008;20.694;2024-03-22T01:27:21;99855.38;;;6.70;73.71
86202;BME280;76853;48.008;20.694;2024-03-22T01:28:23;99863.13;;;6.70;73.93
86202;BME280;76853;48.008;20.694;2024-03-22T01:29:25;99856.03;;;6.72;73.68
86202;BME280;76853;48.008;20.694;2024-03-22T01:30:29;99857.38;;;6.76;72.98
86202;BME280;76853;48.008;20.694;2024-03-22T01:31:32;99859.25;;;6.74;72.33
86202;BME280;76853;48.008;20.694;2024-03-22T01:32:37;99867.97;;;6.73;72.85
86202;BME280;76853;48.008;20.694;2024-03-22T01:33:39;99853.44;;;6.72;72.54
86202;BME280;76853;48.008;20.694;2024-03-22T01:34:41;99857.50;;;6.75;72.15
86202;BME280;76853;48.008;20.694;2024-03-22T01:35:43;99851.75;;;6.81;70.90
86202;BME280;76853;48.008;20.694;2024-03-22T01:36:46;99843.72;;;6.84;70.75
86202;BME280;76853;48.008;20.694;2024-03-22T01:37:49;99850.78;;;6.82;71.59
86202;BME280;76853;48.008;20.694;2024-03-22T01:38:53;99841.28;;;6.82;71.68
86202;BME280;76853;48.008;20.694;2024-03-22T01:39:58;99844.66;;;6.83;71.26
86202;BME280;76853;48.008;20.694;2024-03-22T01:41:01;99844.09;;;6.89;70.43
86202;BME280;76853;48.008;20.694;2024-03-22T01:42:04;99845.00;;;6.88;71.58
86202;BME280;76853;48.008;20.694;2024-03-22T01:43:06;99849.03;;;6.82;72.08
86202;BME280;76853;48.008;20.694;2024-03-22T01:44:09;99849.97;;;6.81;72.36
86202;BME280;76853;48.008;20.694;2024-03-22T01:45:15;99849.16;;;6.81;72.72
86202;BME280;76853;48.008;20.694;2024-03-22T01:46:18;99850.66;;;6.83;72.34
86202;BME280;76853;48.008;20.694;2024-03-22T01:47:20;99852.25;;;6.85;72.08
86202;BME280;76853;48.008;20.694;2024-03-22T01:48:22;99845.09;;;6.78;72.90
86202;BME280;76853;48.008;20.694;2024-03-22T01:49:26;99852.03;;;6.78;73.68
86202;BME280;76853;48.008;20.694;2024-03-22T01:50:29;99840.75;;;6.79;73.35
86202;BME280;76853;48.008;20.694;2024-03-22T01:51:31;99845.09;;;6.78;73.60
86202;BME280;76853;48.008;20.694;2024-03-22T01:52:34;99842.97;;;6.74;73.98
86202;BME280;76853;48.008;20.694;2024-03-22T01:53:37;99856.63;;;6.66;74.59
86202;BME280;76853;48.008;20.694;2024-03-22T01:54:39;99847.03;;;6.59;74.74
86202;BME280;76853;48.008;20.694;2024-03-22T01:55:42;99853.00;;;6.59;74.23
86202;BME280;76853;48.008;20.694;2024-03-22T01:56:44;99843.84;;;6.65;73.64
86202;BME280;76853;48.008;20.694;2024-03-22T01:57:46;99844.50;;;6.67;73.34
86202;BME280;76853;48.008;20.694;2024-03-22T01:58:51;99846.44;;;6.65;73.19
86202;BME280;76853;48.008;20.694;2024-03-22T01:59:55;99840.75;;;6.61;74.23
86202;BME280;76853;48.008;20.694;2024-03-22T02:00:59;99851.06;;;6.61;74.30
86202;BME280;76853;48.008;20.694;2024-03-22T02:02:01;99837.34;;;6.61;73.77
86202;BME280;76853;48.008;20.694;2024-03-22T02:03:04;99843.63;;;6.58;73.68
86202;BME280;76853;48.008;20.694;2024-03-22T02:04:06;99839.59;;;6.55;73.91
86202;BME280;76853;48.008;20.694;2024-03-22T02:05:16;99838.91;;;6.53;74.32
86202;BME280;76853;48.008;20.694;2024-03-22T02:06:21;99843.91;;;6.55;74.65
86202;BME280;76853;48.008;20.694;2024-03-22T02:07:23;99829.91;;;6.58;74.30
86202;BME280;76853;48.008;20.694;2024-03-22T02:08:28;99841.44;;;6.63;74.27
86202;BME280;76853;48.008;20.694;2024-03-22T02:09:30;99829.47;;;6.62;73.88
86202;BME280;76853;48.008;20.694;2024-03-22T02:10:32;99836.53;;;6.60;73.84
86202;BME280;76853;48.008;20.694;2024-03-22T02:11:37;99840.91;;;6.60;74.26
86202;BME280;76853;48.008;20.694;2024-03-22T02:12:42;99831.22;;;6.62;74.37
86202;BME280;76853;48.008;20.694;2024-03-22T02:13:44;99833.97;;;6.60;74.59
86202;BME280;76853;48.008;20.694;2024-03-22T02:14:46;99834.09;;;6.59;73.83
86202;BME280;76853;48.008;20.694;2024-03-22T02:15:48;99842.16;;;6.55;74.59
86202;BME280;76853;48.008;20.694;2024-03-22T02:16:50;99833.28;;;6.58;74.44
86202;BME280;76853;48.008;20.694;2024-03-22T02:17:53;99833.16;;;6.60;73.81
86202;BME280;76853;48.008;20.694;2024-03-22T02:18:56;99837.34;;;6.61;73.59
86202;BME280;76853;48.008;20.694;2024-03-22T02:19:59;99836.91;;;6.65;73.29
86202;BME280;76853;48.008;20.694;2024-03-22T02:21:02;99832.41;;;6.67;73.19
86202;BME280;76853;48.008;20.694;2024-03-22T02:22:05;99833.38;;;6.66;73.07
86202;BME280;76853;48.008;20.694;2024-03-22T02:23:09;99835.00;;;6.67;72.94
86202;BME280;76853;48.008;20.694;2024-03-22T02:24:11;99832.88;;;6.63;74.03
86202;BME280;76853;48.008;20.694;2024-03-22T02:25:13;99828.50;;;6.63;73.88
86202;BME280;76853;48.008;20.694;2024-03-22T02:26:16;99826.44;;;6.67;73.93
86202;BME280;76853;48.008;20.694;2024-03-22T02:27:18;99821.09;;;6.68;73.92
86202;BME280;76853;48.008;20.694;2024-03-22T02:28:20;99823.34;;;6.63;74.07
86202;BME280;76853;48.008;20.694;2024-03-22T02:29:22;99825.13;;;6.63;75.11
86202;BME280;76853;48.008;20.694;2024-03-22T02:30:24;99835.13;;;6.66;75.09
86202;BME280;76853;48.008;20.694;2024-03-22T02:31:26;99826.59;;;6.65;74.85
86202;BME280;76853;48.008;20.694;2024-03-22T02:32:29;99818.63;;;6.59;75.31
86202;BME280;76853;48.008;20.694;2024-03-22T02:33:31;99829.16;;;6.65;74.79
86202;BME280;76853;48.008;20.694;2024-03-22T02:34:36;99827.38;;;6.66;74.71
86202;BME280;76853;48.008;20.694;2024-03-22T02:35:38;99830.50;;;6.69;75.00
86202;BME280;76853;48.008;20.694;2024-03-22T02:36:40;99826.28;;;6.68;74.19
86202;BME280;76853;48.008;20.694;2024-03-22T02:37:42;99825.34;;;6.69;73.86
86202;BME280;76853;48.008;20.694;2024-03-22T02:38:45;99823.69;;;6.68;74.02
86202;BME280;76853;48.008;20.694;2024-03-22T02:39:47;99824.66;;;6.67;74.22
86202;BME280;76853;48.008;20.694;2024-03-22T02:40:51;99815.00;;;6.69;74.30
86202;BME280;76853;48.008;20.694;2024-03-22T02:41:54;99814.19;;;6.69;74.48
86202;BME280;76853;48.008;20.694;2024-03-22T02:42:59;99820.03;;;6.71;74.51
86202;BME280;76853;48.008;20.694;2024-03-22T02:44:01;99823.41;;;6.71;74.83
86202;BME280;76853;48.008;20.694;2024-03-22T02:45:04;99827.78;;;6.71;74.47
86202;BME280;76853;48.008;20.694;2024-03-22T02:46:08;99815.00;;;6.69;74.36
86202;BME280;76853;48.008;20.694;2024-03-22T02:47:11;99816.63;;;6.70;73.76
86202;BME280;76853;48.008;20.694;2024-03-22T02:48:17;99820.69;;;6.73;73.23
86202;BME280;76853;48.008;20.694;2024-03-22T02:49:19;99821.31;;;6.75;72.80
86202;BME280;76853;48.008;20.694;2024-03-22T02:50:21;99812.66;;;6.76;73.11
86202;BME280;76853;48.008;20.694;2024-03-22T02:51:24;99808.13;;;6.78;72.65
86202;BME280;76853;48.008;20.694;2024-03-22T02:52:26;99812.66;;;6.76;73.03
86202;BME280;76853;48.008;20.694;2024-03-22T02:53:30;99806.50;;;6.77;72.95
86202;BME280;76853;48.008;20.694;2024-03-22T02:54:36;99809.25;;;6.75;73.42
86202;BME280;76853;48.008;20.694;2024-03-22T02:55:39;99816.16;;;6.75;73.66
86202;BME280;76853;48.008;20.694;2024-03-22T02:56:42;99812.66;;;6.76;74.12
86202;BME280;76853;48.008;20.694;2024-03-22T02:57:44;99823.69;;;6.68;74.19
86202;BME280;76853;48.008;20.694;2024-03-22T02:58:46;99815.72;;;6.62;75.71
86202;BME280;76853;48.008;20.694;2024-03-22T02:59:52;99825.41;;;6.60;75.83
86202;BME280;76853;48.008;20.694;2024-03-22T03:00:55;99815.81;;;6.52;76.37
86202;BME280;76853;48.008;20.694;2024-03-22T03:01:58;99825.31;;;6.51;76.71
86202;BME280;76853;48.008;20.694;2024-03-22T03:03:00;99830.13;;;6.46;76.60
86202;BME280;76853;48.008;20.694;2024-03-22T03:04:02;99825.38;;;6.42;76.51
86202;BME280;76853;48.008;20.694;2024-03-22T03:05:05;99825.53;;;6.40;76.75
86202;BME280;76853;48.008;20.694;2024-03-22T03:06:11;99834.91;;;6.41;76.73
86202;BME280;76853;48.008;20.694;2024-03-22T03:07:15;99831.44;;;6.33;76.57
86202;BME280;76853;48.008;20.694;2024-03-22T03:08:18;99828.47;;;6.27;76.70
86202;BME280;76853;48.008;20.694;2024-03-22T03:09:21;99834.31;;;6.30;76.87
86202;BME280;76853;48.008;20.694;2024-03-22T03:10:25;99834.16;;;6.31;76.79
86202;BME280;76853;48.008;20.694;2024-03-22T03:11:28;99830.38;;;6.25;76.39
86202;BME280;76853;48.008;20.694;2024-03-22T03:12:30;99828.91;;;6.23;76.53
86202;BME280;76853;48.008;20.694;2024-03-22T03:13:32;99823.44;;;6.26;76.43
86202;BME280;76853;48.008;20.694;2024-03-22T03:14:37;99829.28;;;6.28;76.58
86202;BME280;76853;48.008;20.694;2024-03-22T03:15:39;99827.16;;;6.23;76.49
86202;BME280;76853;48.008;20.694;2024-03-22T03:16:41;99832.00;;;6.26;76.44
86202;BME280;76853;48.008;20.694;2024-03-22T03:17:43;99829.28;;;6.28;76.19
86202;BME280;76853;48.008;20.694;2024-03-22T03:18:47;99832.53;;;6.30;76.24
86202;BME280;76853;48.008;20.694;2024-03-22T03:19:49;99829.66;;;6.33;76.12
86202;BME280;76853;48.008;20.694;2024-03-22T03:20:51;99828.84;;;6.33;76.70
86202;BME280;76853;48.008;20.694;2024-03-22T03:21:55;99832.53;;;6.30;77.05
86202;BME280;76853;48.008;20.694;2024-03-22T03:22:57;99836.34;;;6.26;76.98
86202;BME280;76853;48.008;20.694;2024-03-22T03:24:01;99828.22;;;6.21;77.03
86202;BME280;76853;48.008;20.694;2024-03-22T03:25:04;99835.03;;;6.22;77.28
86202;BME280;76853;48.008;20.694;2024-03-22T03:26:06;99832.47;;;6.22;77.09
86202;BME280;76853;48.008;20.694;2024-03-22T03:27:08;99833.13;;;6.24;77.33
86202;BME280;76853;48.008;20.694;2024-03-22T03:28:10;99837.16;;;6.26;76.97
86202;BME280;76853;48.008;20.694;2024-03-22T03:29:17;99837.00;;;6.28;76.87
86202;BME280;76853;48.008;20.694;2024-03-22T03:30:22;99836.09;;;6.29;76.88
86202;BME280;76853;48.008;20.694;2024-03-22T03:31:24;99838.50;;;6.31;76.65
86202;BME280;76853;48.008;20.694;2024-03-22T03:32:28;99838.50;;;6.31;76.89
86202;BME280;76853;48.008;20.694;2024-03-22T03:33:30;99828.63;;;6.26;77.27
86202;BME280;76853;48.008;20.694;2024-03-22T03:34:33;99830.22;;;6.27;77.20
86202;BME280;76853;48.008;20.694;2024-03-22T03:35:36;99829.97;;;6.30;77.06
86202;BME280;76853;48.008;20.694;2024-03-22T03:36:40;99828.47;;;6.27;77.66
86202;BME280;76853;48.008;20.694;2024-03-22T03:37:42;99828.19;;;6.31;77.48
86202;BME280;76853;48.008;20.694;2024-03-22T03:38:45;99827.88;;;6.34;77.19
86202;BME280;76853;48.008;20.694;2024-03-22T03:39:47;99831.81;;;6.38;76.98
86202;BME280;76853;48.008;20.694;2024-03-22T03:40:51;99826.34;;;6.41;77.06
86202;BME280;76853;48.008;20.694;2024-03-22T03:41:59;99830.91;;;6.47;76.98
86202;BME280;76853;48.008;20.694;2024-03-22T03:43:01;99824.94;;;6.46;76.78
86202;BME280;76853;48.008;20.694;2024-03-22T03:44:03;99832.69;;;6.46;76.42
86202;BME280;76853;48.008;20.694;2024-03-22T03:45:06;99830.13;;;6.46;76.21
86202;BME280;76853;48.008;20.694;2024-03-22T03:46:08;99834.31;;;6.47;76.37
86202;BME280;76853;48.008;20.694;2024-03-22T03:47:11;99833.34;;;6.48;77.03
86202;BME280;76853;48.008;20.694;2024-03-22T03:48:13;99829.16;;;6.47;78.16
86202;BME280;76853;48.008;20.694;2024-03-22T03:49:20;99835.00;;;6.49;77.26
86202;BME280;76853;48.008;20.694;2024-03-22T03:50:24;99836.63;;;6.50;77.44
86202;BME280;76853;48.008;20.694;2024-03-22T03:51:26;99829.84;;;6.49;77.33
86202;BME280;76853;48.008;20.694;2024-03-22T03:52:28;99825.31;;;6.51;77.47
86202;BME280;76853;48.008;20.694;2024-03-22T03:53:31;99833.34;;;6.48;77.51
86202;BME280;76853;48.008;20.694;2024-03-22T03:54:33;99835.28;;;6.46;75.82
86202;BME280;76853;48.008;20.694;2024-03-22T03:55:35;99832.19;;;6.43;75.53
86202;BME280;76853;48.008;20.694;2024-03-22T03:56:37;99829.22;;;6.38;75.82
86202;BME280;76853;48.008;20.694;2024-03-22T03:57:40;99829.38;;;6.36;75.60
86202;BME280;76853;48.008;20.694;2024-03-22T03:58:45;99830.03;;;6.38;75.25
86202;BME280;76853;48.008;20.694;2024-03-22T03:59:47;99835.47;;;6.35;75.81
86202;BME280;76853;48.008;20.694;2024-03-22T04:00:50;99837.94;;;6.37;75.70
86202;BME280;76853;48.008;20.694;2024-03-22T04:01:52;99834.53;;;6.36;75.68
86202;BME280;76853;48.008;20.694;2024-03-22T04:02:56;99828.03;;;6.32;75.27
86202;BME280;76853;48.008;20.694;2024-03-22T04:03:58;99836.31;;;6.36;75.53
86202;BME280;76853;48.008;20.694;2024-03-22T04:05:00;99837.63;;;6.40;75.76
86202;BME280;76853;48.008;20.694;2024-03-22T04:06:02;99831.50;;;6.41;76.10
86202;BME280;76853;48.008;20.694;2024-03-22T04:07:04;99832.78;;;6.37;76.25
86202;BME280;76853;48.008;20.694;2024-03-22T04:08:07;99838.59;;;6.39;76.59
86202;BME280;76853;48.008;20.694;2024-03-22T04:09:11;99834.53;;;6.36;77.31
86202;BME280;76853;48.008;20.694;2024-03-22T04:10:13;99838.59;;;6.39;77.35
86202;BME280;76853;48.008;20.694;2024-03-22T04:11:16;99839.41;;;6.39;77.01
86202;BME280;76853;48.008;20.694;2024-03-22T04:12:18;99834.91;;;6.41;77.27
86202;BME280;76853;48.008;20.694;2024-03-22T04:13:20;99833.81;;;6.44;77.00
86202;BME280;76853;48.008;20.694;2024-03-22T04:14:22;99841.56;;;6.44;77.15
86202;BME280;76853;48.008;20.694;2024-03-22T04:15:24;99845.53;;;6.38;77.78
86202;BME280;76853;48.008;20.694;2024-03-22T04:16:27;99836.59;;;6.33;78.44
86202;BME280;76853;48.008;20.694;2024-03-22T04:17:29;99842.94;;;6.38;77.69
86202;BME280;76853;48.008;20.694;2024-03-22T04:18:31;99847.31;;;6.38;77.82
86202;BME280;76853;48.008;20.694;2024-03-22T04:19:33;99840.22;;;6.40;77.94
86202;BME280;76853;48.008;20.694;2024-03-22T04:20:36;99841.56;;;6.44;77.30
86202;BME280;76853;48.008;20.694;2024-03-22T04:21:38;99844.41;;;6.41;77.19
86202;BME280;76853;48.008;20.694;2024-03-22T04:22:44;99843.59;;;6.40;77.49
86202;BME280;76853;48.008;20.694;2024-03-22T04:23:48;99843.75;;;6.39;77.68
86202;BME280;76853;48.008;20.694;2024-03-22T04:24:50;99845.09;;;6.43;77.48
86202;BME280;76853;48.008;20.694;2024-03-22T04:25:59;99843.44;;;6.42;77.70
86202;BME280;76853;48.008;20.694;2024-03-22T04:27:01;99845.91;;;6.43;77.04
86202;BME280;76853;48.008;20.694;2024-03-22T04:28:04;99839.94;;;6.43;76.57
86202;BME280;76853;48.008;20.694;2024-03-22T04:29:06;99846.03;;;6.42;76.22
86202;BME280;76853;48.008;20.694;2024-03-22T04:30:09;99842.38;;;6.44;76.05
86202;BME280;76853;48.008;20.694;2024-03-22T04:31:12;99841.56;;;6.44;76.14
86202;BME280;76853;48.008;20.694;2024-03-22T04:32:14;99840.28;;;6.48;76.08
86202;BME280;76853;48.008;20.694;2024-03-22T04:33:16;99840.44;;;6.46;76.38
86202;BME280;76853;48.008;20.694;2024-03-22T04:34:20;99842.22;;;6.46;77.32
86202;BME280;76853;48.008;20.694;2024-03-22T04:35:22;99835.94;;;6.48;76.60
86202;BME280;76853;48.008;20.694;2024-03-22T04:36:25;99831.47;;;6.50;76.61
86202;BME280;76853;48.008;20.694;2024-03-22T04:37:27;99845.19;;;6.51;76.96
86202;BME280;76853;48.008;20.694;2024-03-22T04:38:29;99845.97;;;6.51;76.96
86202;BME280;76853;48.008;20.694;2024-03-22T04:39:32;99839.03;;;6.52;76.83
86202;BME280;76853;48.008;20.694;2024-03-22T04:40:34;99842.88;;;6.48;76.91
86202;BME280;76853;48.008;20.694;2024-03-22T04:41:37;99842.38;;;6.44;76.90
86202;BME280;76853;48.008;20.694;2024-03-22T04:42:39;99837.19;;;6.44;76.91
86202;BME280;76853;48.008;20.694;2024-03-22T04:43:42;99845.59;;;6.46;77.14
86202;BME280;76853;48.008;20.694;2024-03-22T04:44:46;99843.97;;;6.45;76.98
86202;BME280;76853;48.008;20.694;2024-03-22T04:45:48;99849.44;;;6.42;77.58
86202;BME280;76853;48.008;20.694;2024-03-22T04:46:52;99850.53;;;6.40;77.63
86202;BME280;76853;48.008;20.694;2024-03-22T04:47:55;99849.56;;;6.41;77.60
86202;BME280;76853;48.008;20.694;2024-03-22T04:48:58;99855.56;;;6.41;77.58
86202;BME280;76853;48.008;20.694;2024-03-22T04:50:01;99855.03;;;6.38;77.59
86202;BME280;76853;48.008;20.694;2024-03-22T04:51:03;99856.66;;;6.39;78.40
86202;BME280;76853;48.008;20.694;2024-03-22T04:52:05;99852.31;;;6.39;78.15
86202;BME280;76853;48.008;20.694;2024-03-22T04:53:09;99855.56;;;6.41;78.09
86202;BME280;76853;48.008;20.694;2024-03-22T04:54:12;99849.44;;;6.42;77.68
86202;BME280;76853;48.008;20.694;2024-03-22T04:55:14;99854.47;;;6.44;77.72
86202;BME280;76853;48.008;20.694;2024-03-22T04:56:16;99848.63;;;6.42;78.46
86202;BME280;76853;48.008;20.694;2024-03-22T04:57:18;99845.22;;;6.41;77.73
86202;BME280;76853;48.008;20.694;2024-03-22T04:58:21;99844.56;;;6.39;77.09
86202;BME280;76853;48.008;20.694;2024-03-22T04:59:24;99848.34;;;6.45;76.92
86202;BME280;76853;48.008;20.694;2024-03-22T05:00:29;99853.06;;;6.49;76.74
86202;BME280;76853;48.008;20.694;2024-03-22T05:01:32;99852.19;;;6.59;76.47
86202;BME280;76853;48.008;20.694;2024-03-22T05:02:34;99852.84;;;6.61;76.19
86202;BME280;76853;48.008;20.694;2024-03-22T05:03:36;99845.78;;;6.63;76.52
86202;BME280;76853;48.008;20.694;2024-03-22T05:04:38;99850.63;;;6.66;76.37
86202;BME280;76853;48.008;20.694;2024-03-22T05:05:41;99850.47;;;6.67;76.20
86202;BME280;76853;48.008;20.694;2024-03-22T05:06:43;99849.53;;;6.68;76.56
86202;BME280;76853;48.008;20.694;2024-03-22T05:07:46;99848.59;;;6.69;76.30
86202;BME280;76853;48.008;20.694;2024-03-22T05:08:48;99854.41;;;6.71;75.84
86202;BME280;76853;48.008;20.694;2024-03-22T05:09:50;99848.94;;;6.74;75.86
86202;BME280;76853;48.008;20.694;2024-03-22T05:10:53;99847.69;;;6.78;75.42
86202;BME280;76853;48.008;20.694;2024-03-22T05:11:55;99840.44;;;6.82;74.27
86202;BME280;76853;48.008;20.694;2024-03-22T05:12:58;99848.56;;;6.87;74.49
86202;BME280;76853;48.008;20.694;2024-03-22T05:14:02;99853.44;;;6.90;74.21
86202;BME280;76853;48.008;20.694;2024-03-22T05:15:08;99845.97;;;6.87;76.49
86202;BME280;76853;48.008;20.694;2024-03-22T05:16:10;99842.16;;;6.91;75.89
86202;BME280;76853;48.008;20.694;2024-03-22T05:17:14;99839.41;;;6.93;75.68
86202;BME280;76853;48.008;20.694;2024-03-22T05:18:17;99850.41;;;6.95;75.38
86202;BME280;76853;48.008;20.694;2024-03-22T05:19:19;99852.19;;;6.94;75.63
86202;BME280;76853;48.008;20.694;2024-03-22T05:20:21;99854.25;;;6.91;76.07
86202;BME280;76853;48.008;20.694;2024-03-22T05:21:25;99843.63;;;6.94;77.00
86202;BME280;76853;48.008;20.694;2024-03-22T05:22:27;99854.91;;;6.93;76.13
86202;BME280;76853;48.008;20.694;2024-03-22T05:23:29;99851.59;;;7.00;76.22
86202;BME280;76853;48.008;20.694;2024-03-22T05:24:32;99852.69;;;6.98;76.39
86202;BME280;76853;48.008;20.694;2024-03-22T05:25:34;99856.25;;;6.97;76.11
86202;BME280;76853;48.008;20.694;2024-03-22T05:26:36;99857.06;;;6.97;76.83
86202;BME280;76853;48.008;20.694;2024-03-22T05:27:38;99851.88;;;6.97;76.81
86202;BME280;76853;48.008;20.694;2024-03-22T05:28:40;99858.59;;;7.08;76.60
86202;BME280;76853;48.008;20.694;2024-03-22T05:29:43;99850.38;;;7.13;76.54
86202;BME280;76853;48.008;20.694;2024-03-22T05:30:47;99853.19;;;7.19;75.71
86202;BME280;76853;48.008;20.694;2024-03-22T05:31:50;99853.41;;;7.26;75.61
86202;BME280;76853;48.008;20.694;2024-03-22T05:32:56;99851.63;;;7.26;74.94